Time;durP1;ratioP1;P1;durP2;ratioP2;P2;SDS_P1;SDS_P2;PMS_P1;PMS_P2;Temp;Humidity;BMP_temperature;BMP_pressure;BME280_temperature;BME280_humidity;BME280_pressure;Samples;Min_cycle;Max_cycle;Signal;HPM_P1;HPM_P2
2023/10/10 00:00:57;;;;;;;4.22;2.85;;;20.40;57.60;;;;;;5072418;28;20168;-47
2023/10/10 00:03:27;;;;;;;2.47;2.10;;;20.40;57.50;;;;;;5072380;28;20259;-50
2023/10/10 00:05:57;;;;;;;2.38;1.23;;;20.40;57.50;;;;;;5071793;28;20204;-47
2023/10/10 00:08:29;;;;;;;4.30;2.97;;;20.40;57.50;;;;;;5072312;28;20184;-48
2023/10/10 00:10:55;;;;;;;7.45;3.08;;;20.50;57.50;;;;;;5072281;28;20434;-50
2023/10/10 00:13:23;;;;;;;3.90;2.13;;;20.50;57.50;;;;;;5072194;28;20564;-47
2023/10/10 00:15:50;;;;;;;4.97;2.95;;;20.50;57.50;;;;;;5071960;28;20419;-51
2023/10/10 00:18:19;;;;;;;5.30;3.13;;;20.50;57.50;;;;;;5072055;28;20179;-50
2023/10/10 00:21:07;;;;;;;5.95;4.03;;;20.50;57.30;;;;;;5071999;28;20425;-48
2023/10/10 00:23:38;;;;;;;2.97;2.20;;;20.50;57.20;;;;;;5072122;28;20229;-49
2023/10/10 00:26:05;;;;;;;4.97;3.05;;;20.40;57.10;;;;;;5071729;28;20287;-50
2023/10/10 00:28:34;;;;;;;2.53;2.30;;;20.50;57.10;;;;;;5072328;28;20551;-50
2023/10/10 00:31:03;;;;;;;4.03;3.03;;;20.40;57.00;;;;;;5071934;28;20457;-47
2023/10/10 00:33:31;;;;;;;4.10;3.30;;;20.40;57.10;;;;;;5071975;28;20399;-47
2023/10/10 00:35:58;;;;;;;3.88;2.95;;;20.40;57.20;;;;;;5071508;28;20427;-50
2023/10/10 00:38:29;;;;;;;3.25;1.88;;;20.40;57.30;;;;;;5071919;28;20226;-49
2023/10/10 00:40:57;;;;;;;3.47;2.67;;;20.40;57.20;;;;;;5071898;28;20175;-49
2023/10/10 00:43:24;;;;;;;7.97;4.47;;;20.40;57.10;;;;;;5071781;28;20176;-47
2023/10/10 00:45:57;;;;;;;4.82;3.53;;;20.40;57.20;;;;;;5071414;28;20275;-50
2023/10/10 00:48:24;;;;;;;7.00;4.05;;;20.40;57.20;;;;;;5071855;28;20243;-49
2023/10/10 00:50:53;;;;;;;5.60;2.72;;;20.40;57.30;;;;;;5071700;28;20223;-48
2023/10/10 00:53:21;;;;;;;7.55;3.33;;;20.40;57.40;;;;;;5071778;28;20192;-49
2023/10/10 00:55:56;;;;;;;4.20;2.65;;;20.40;57.50;;;;;;5071300;28;20207;-49
2023/10/10 00:58:35;;;;;;;3.67;2.90;;;20.30;57.50;;;;;;5071742;28;20172;-50
2023/10/10 01:01:07;;;;;;;3.37;2.97;;;20.30;57.60;;;;;;5071823;28;20421;-50
2023/10/10 01:03:35;;;;;;;8.10;3.87;;;20.30;57.60;;;;;;5071738;28;20902;-49
2023/10/10 01:06:05;;;;;;;7.18;5.22;;;20.30;57.50;;;;;;5071188;28;20817;-49
2023/10/10 01:08:53;;;;;;;6.30;3.40;;;20.30;57.50;;;;;;5074725;28;20259;-49
2023/10/10 01:11:19;;;;;;;3.97;2.10;;;20.30;57.40;;;;;;5075709;28;20251;-49
2023/10/10 01:13:45;;;;;;;11.02;3.75;;;20.30;57.50;;;;;;5075590;28;20175;-49
2023/10/10 01:16:12;;;;;;;4.27;3.00;;;20.30;57.40;;;;;;5075204;28;20196;-51
2023/10/10 01:18:51;;;;;;;4.38;2.85;;;20.40;57.30;;;;;;5075449;28;20486;-48
2023/10/10 01:21:30;;;;;;;5.60;3.80;;;20.40;57.20;;;;;;5075468;28;20176;-48
2023/10/10 01:24:06;;;;;;;3.70;2.43;;;20.40;57.10;;;;;;5075547;28;20406;-49
2023/10/10 01:26:36;;;;;;;3.05;2.42;;;20.30;57.10;;;;;;5074965;28;20454;-51
2023/10/10 01:29:25;;;;;;;3.90;2.73;;;20.30;57.10;;;;;;5075231;28;20720;-49
2023/10/10 01:31:54;;;;;;;5.28;3.83;;;20.30;57.10;;;;;;5075252;28;20882;-50
2023/10/10 01:34:43;;;;;;;3.75;2.17;;;20.30;57.10;;;;;;5075198;28;20172;-50
2023/10/10 01:37:22;;;;;;;3.47;1.95;;;20.30;57.10;;;;;;5074982;28;20673;-47
2023/10/10 01:40:16;;;;;;;4.10;1.77;;;20.30;57.10;;;;;;5075060;28;20208;-48
2023/10/10 01:42:51;;;;;;;2.50;1.83;;;20.30;57.10;;;;;;5075056;28;20485;-49
2023/10/10 01:45:19;;;;;;;2.88;2.05;;;20.30;57.10;;;;;;5074856;28;20173;-48
2023/10/10 01:48:08;;;;;;;2.90;2.53;;;20.30;57.10;;;;;;5074730;28;20636;-47
2023/10/10 01:50:31;;;;;;;3.75;2.40;;;20.30;57.00;;;;;;5074475;28;20411;-50
2023/10/10 01:52:57;;;;;;;3.23;1.80;;;20.20;56.80;;;;;;5074821;28;20661;-50
2023/10/10 01:55:26;;;;;;;1.73;1.63;;;20.20;56.80;;;;;;5074414;28;20168;-48
2023/10/10 01:57:53;;;;;;;1.95;1.25;;;20.20;56.80;;;;;;5074722;28;20402;-47
2023/10/10 02:00:26;;;;;;;8.40;3.50;;;20.20;56.90;;;;;;5074554;28;20575;-50
2023/10/10 02:02:55;;;;;;;4.32;2.03;;;20.20;57.00;;;;;;5074611;28;20403;-49
2023/10/10 02:08:04;;;;;;;4.70;2.50;;;20.20;57.00;;;;;;5074592;28;20161;-51
2023/10/10 02:10:30;;;;;;;3.40;1.98;;;20.20;57.00;;;;;;5074539;28;20426;-47
2023/10/10 02:12:59;;;;;;;3.97;3.47;;;20.20;57.00;;;;;;5074448;28;20556;-49
2023/10/10 02:15:32;;;;;;;2.25;2.05;;;20.20;57.00;;;;;;5074137;28;20164;-48
2023/10/10 02:18:04;;;;;;;3.20;2.58;;;20.20;57.00;;;;;;5073883;28;20276;-49
2023/10/10 02:20:49;;;;;;;3.05;2.15;;;20.20;57.00;;;;;;5074361;28;20310;-50
2023/10/10 02:23:31;;;;;;;3.13;2.60;;;20.20;56.90;;;;;;5074356;28;20177;-49
2023/10/10 02:26:14;;;;;;;3.00;2.28;;;20.20;56.90;;;;;;5073901;28;20451;-49
2023/10/10 02:31:12;;;;;;;2.95;1.95;;;20.20;56.80;;;;;;5074304;28;20200;-49
2023/10/10 02:33:46;;;;;;;1.60;1.20;;;20.10;56.90;;;;;;5073997;28;20605;-48
2023/10/10 02:36:13;;;;;;;3.65;2.25;;;20.20;56.70;;;;;;5073807;28;20188;-48
2023/10/10 02:38:39;;;;;;;4.03;2.20;;;20.20;56.70;;;;;;5073983;28;20183;-51
2023/10/10 02:41:15;;;;;;;3.43;2.73;;;20.20;56.70;;;;;;5073958;28;20827;-48
2023/10/10 02:43:54;;;;;;;6.97;3.03;;;20.20;56.60;;;;;;5073930;28;20535;-48
2023/10/10 02:46:28;;;;;;;2.53;2.30;;;20.20;56.60;;;;;;5073420;28;20204;-48
2023/10/10 02:48:55;;;;;;;3.47;2.00;;;20.20;56.60;;;;;;5073794;28;20628;-48
2023/10/10 02:51:22;;;;;;;1.97;1.43;;;20.20;56.60;;;;;;5073768;28;20402;-50
2023/10/10 02:53:48;;;;;;;2.93;2.23;;;20.20;56.50;;;;;;5073711;28;20478;-47
2023/10/10 02:56:18;;;;;;;1.93;1.43;;;20.20;57.20;;;;;;5088913;28;20542;-50
2023/10/10 02:58:45;;;;;;;3.78;2.38;;;20.20;56.50;;;;;;5073518;28;20169;-48
2023/10/10 03:01:24;;;;;;;3.10;2.10;;;20.20;56.50;;;;;;5073631;28;20207;-50
2023/10/10 03:03:54;;;;;;;3.63;2.13;;;20.20;56.50;;;;;;5073607;28;20414;-50
2023/10/10 03:06:24;;;;;;;4.40;2.70;;;20.20;56.50;;;;;;5073045;28;20600;-48
2023/10/10 03:09:07;;;;;;;2.22;1.65;;;20.20;56.50;;;;;;5073454;28;20435;-49
2023/10/10 03:11:39;;;;;;;2.55;1.90;;;20.20;56.50;;;;;;5073393;28;20172;-50
2023/10/10 03:14:08;;;;;;;7.05;4.05;;;20.20;56.40;;;;;;5073307;28;20651;-48
2023/10/10 03:16:59;;;;;;;4.30;2.45;;;20.20;56.40;;;;;;5072874;28;20196;-47
2023/10/10 03:19:28;;;;;;;4.15;1.95;;;20.20;56.30;;;;;;5073232;28;20169;-50
2023/10/10 03:27:49;;;;;;;5.10;3.50;;;20.20;56.20;;;;;;5070241;28;20216;-50
2023/10/10 03:30:35;;;;;;;3.53;2.58;;;20.20;56.20;;;;;;5069783;28;20725;-50
2023/10/10 03:33:08;;;;;;;3.28;2.22;;;20.20;56.20;;;;;;5070627;28;20243;-48
2023/10/10 03:35:59;;;;;;;5.57;1.73;;;20.20;56.10;;;;;;5070274;28;20173;-49
2023/10/10 03:39:15;;;;;;;3.67;2.30;;;20.20;56.20;;;;;;5070262;28;20173;-51
2023/10/10 05:25:07;;;;;;;4.23;2.13;;;19.90;56.30;;;;;;5071700;28;20187;-47
2023/10/10 05:27:41;;;;;;;2.55;1.38;;;19.90;56.30;;;;;;5071263;28;20427;-48
2023/10/10 05:30:07;;;;;;;4.75;1.40;;;19.90;56.20;;;;;;5071473;28;20255;-50
2023/10/10 05:32:33;;;;;;;1.97;1.30;;;19.90;56.20;;;;;;5071487;28;20591;-48
2023/10/10 05:35:01;;;;;;;4.30;1.63;;;19.80;56.90;;;;;;5071205;28;20431;-51
2023/10/10 05:37:27;;;;;;;2.58;2.17;;;19.80;56.30;;;;;;5071227;28;20218;-50
2023/10/10 05:39:56;;;;;;;2.33;1.40;;;19.80;56.40;;;;;;5071440;28;20680;-48
2023/10/10 05:42:33;;;;;;;2.45;1.70;;;19.80;56.30;;;;;;5071263;28;20652;-50
2023/10/10 05:45:06;;;;;;;1.90;1.00;;;19.80;56.30;;;;;;5071486;28;20188;-50
2023/10/10 05:47:31;;;;;;;2.30;1.13;;;19.80;56.20;;;;;;5070856;28;20211;-48
2023/10/10 05:49:57;;;;;;;3.10;2.00;;;19.80;56.20;;;;;;5071223;28;20255;-50
2023/10/10 05:52:23;;;;;;;3.63;1.97;;;19.70;56.10;;;;;;5071354;28;20218;-51
2023/10/10 05:54:48;;;;;;;1.57;1.47;;;19.70;56.00;;;;;;5074568;28;20399;-49
2023/10/10 05:57:14;;;;;;;4.40;2.00;;;19.70;56.10;;;;;;5074333;28;20238;-52
2023/10/10 05:59:40;;;;;;;2.23;1.73;;;19.70;56.30;;;;;;5074734;28;20175;-50
2023/10/10 06:02:11;;;;;;;2.97;1.70;;;19.70;56.40;;;;;;5074645;28;20179;-48
2023/10/10 06:04:36;;;;;;;2.65;2.03;;;19.80;56.40;;;;;;5074622;28;20612;-52
2023/10/10 06:07:03;;;;;;;3.43;0.77;;;19.80;56.20;;;;;;5074201;28;20242;-48
2023/10/10 06:09:33;;;;;;;1.30;0.93;;;19.90;56.40;;;;;;5074638;28;20894;-48
2023/10/10 06:12:04;;;;;;;2.10;1.48;;;19.90;56.30;;;;;;5074466;28;20187;-51
2023/10/10 06:14:31;;;;;;;1.85;0.85;;;19.90;56.10;;;;;;5074408;28;20195;-50
2023/10/10 06:16:57;;;;;;;2.30;1.13;;;19.90;56.20;;;;;;5074353;28;20226;-49
2023/10/10 06:19:22;;;;;;;2.80;1.27;;;19.90;56.30;;;;;;5074431;28;20644;-50
2023/10/10 06:21:48;;;;;;;1.27;0.93;;;19.90;56.20;;;;;;5074487;28;20180;-48
2023/10/10 06:24:14;;;;;;;1.57;0.77;;;19.90;56.10;;;;;;5074334;28;20536;-48
2023/10/10 06:26:45;;;;;;;2.33;1.17;;;19.90;56.10;;;;;;5073825;28;20295;-51
2023/10/10 06:29:12;;;;;;;2.30;1.45;;;19.90;56.00;;;;;;5074195;28;20589;-48
2023/10/10 06:31:43;;;;;;;1.80;1.10;;;19.90;56.20;;;;;;5074370;28;20250;-50
2023/10/10 06:34:34;;;;;;;3.05;1.98;;;20.00;56.40;;;;;;5074358;28;20173;-49
2023/10/10 06:36:55;;;;;;;1.85;1.40;;;20.00;56.10;;;;;;5073582;28;20212;-48
2023/10/10 06:39:21;;;;;;;1.83;1.00;;;20.00;56.00;;;;;;5073982;28;20784;-48
2023/10/10 06:41:50;;;;;;;2.13;1.33;;;20.00;56.10;;;;;;5073802;28;20655;-49
2023/10/10 06:44:32;;;;;;;1.55;0.70;;;20.00;56.10;;;;;;5074003;28;20699;-49
2023/10/10 06:46:59;;;;;;;2.72;1.33;;;20.00;56.00;;;;;;5073481;28;20224;-51
2023/10/10 06:49:25;;;;;;;1.75;1.38;;;20.10;56.00;;;;;;5073847;28;20177;-50
2023/10/10 06:51:55;;;;;;;1.50;1.00;;;20.10;56.10;;;;;;5073796;28;20636;-50
2023/10/10 06:54:29;;;;;;;4.45;2.20;;;20.10;56.10;;;;;;5073669;28;20403;-51
2023/10/10 06:59:28;;;;;;;2.65;0.93;;;20.10;56.10;;;;;;5073830;28;20169;-49
2023/10/10 07:02:00;;;;;;;1.88;0.90;;;20.20;56.10;;;;;;5073600;28;20177;-50
2023/10/10 07:04:29;;;;;;;10.93;1.73;;;20.20;56.20;;;;;;5073506;28;20173;-49
2023/10/10 07:07:00;;;;;;;2.58;1.48;;;20.20;56.10;;;;;;5073059;28;20216;-52
2023/10/10 07:09:36;;;;;;;2.53;1.17;;;20.20;56.10;;;;;;5073436;28;20696;-48
2023/10/10 07:12:13;;;;;;;2.00;1.38;;;20.20;55.80;;;;;;5073464;28;20180;-48
2023/10/10 07:14:43;;;;;;;2.60;1.80;;;20.30;56.00;;;;;;5073429;28;20172;-49
2023/10/10 07:17:12;;;;;;;2.30;1.60;;;20.30;55.80;;;;;;5072833;28;20571;-49
2023/10/10 07:22:26;;;;;;;2.50;1.35;;;20.30;56.00;;;;;;5073370;28;20877;-50
2023/10/10 07:25:06;;;;;;;1.60;1.17;;;20.40;56.00;;;;;;5073147;28;20176;-47
2023/10/10 07:27:32;;;;;;;2.53;1.70;;;20.40;56.00;;;;;;5072582;28;20216;-51
2023/10/10 07:29:58;;;;;;;1.98;1.58;;;20.40;55.80;;;;;;5073213;28;20497;-50
2023/10/10 07:32:30;;;;;;;2.70;1.70;;;20.40;55.70;;;;;;5073097;28;20866;-53
2023/10/10 07:34:58;;;;;;;2.00;1.80;;;20.40;55.70;;;;;;5072866;28;20172;-49
2023/10/10 07:37:27;;;;;;;3.20;2.27;;;20.40;55.80;;;;;;5072577;28;20431;-50
2023/10/10 07:40:06;;;;;;;3.45;2.13;;;20.40;55.70;;;;;;5072769;28;20493;-48
2023/10/10 07:42:34;;;;;;;2.60;1.70;;;20.40;55.80;;;;;;5073001;28;20567;-52
2023/10/10 07:45:13;;;;;;;2.97;1.40;;;20.40;55.80;;;;;;5072826;28;20767;-48
2023/10/10 07:50:47;;;;;;;1.60;1.07;;;20.50;55.60;;;;;;5050347;28;20187;-50
2023/10/10 07:53:14;;;;;;;1.70;0.98;;;20.50;55.40;;;;;;5068894;28;20495;-48
2023/10/10 07:56:14;;;;;;;16.77;2.95;;;20.60;55.60;;;;;;5072288;28;20685;-50
2023/10/10 07:58:49;;;;;;;1.60;1.02;;;20.60;54.80;;;;;;5071251;28;20188;-50
2023/10/10 08:01:19;;;;;;;2.27;1.50;;;20.60;55.40;;;;;;5072669;28;20181;-48
2023/10/10 08:03:46;;;;;;;7.87;1.80;;;20.60;55.50;;;;;;5072292;28;20902;-51
2023/10/10 08:06:18;;;;;;;2.87;1.90;;;20.60;55.30;;;;;;5071934;28;20568;-50
2023/10/10 08:11:37;;;;;;;2.63;1.53;;;20.70;55.40;;;;;;5072314;28;20188;-52
2023/10/10 08:14:07;;;;;;;2.30;1.45;;;20.70;55.30;;;;;;5072384;28;20455;-49
2023/10/10 08:16:33;;;;;;;2.93;2.53;;;20.70;55.30;;;;;;5071383;28;20200;-51
2023/10/10 08:19:10;;;;;;;4.00;2.83;;;20.80;55.20;;;;;;5072133;28;20410;-48
2023/10/10 08:21:39;;;;;;;2.33;1.73;;;20.80;55.30;;;;;;5072124;28;20317;-49
2023/10/10 08:24:12;;;;;;;2.50;2.00;;;20.90;55.40;;;;;;5072371;28;20183;-51
2023/10/10 08:26:41;;;;;;;3.23;2.30;;;20.90;55.40;;;;;;5071854;28;20458;-49
2023/10/10 08:29:08;;;;;;;2.13;1.93;;;21.00;55.30;;;;;;5072018;28;20438;-52
2023/10/10 08:31:39;;;;;;;2.57;1.60;;;21.00;55.00;;;;;;5071981;28;20407;-49
2023/10/10 08:34:11;;;;;;;2.63;1.50;;;21.10;55.00;;;;;;5071956;28;20979;-49
2023/10/10 08:36:43;;;;;;;1.63;1.50;;;21.10;54.90;;;;;;5071627;28;20200;-51
2023/10/10 08:39:32;;;;;;;2.50;1.87;;;21.10;54.80;;;;;;5071879;28;20415;-50
2023/10/10 08:41:59;;;;;;;4.20;2.07;;;21.10;55.60;;;;;;5071777;28;20433;-50
2023/10/10 08:44:28;;;;;;;2.27;1.43;;;21.00;52.50;;;;;;5071790;28;20415;-51
2023/10/10 08:46:58;;;;;;;1.70;1.00;;;20.90;52.70;;;;;;5071566;28;20541;-48
2023/10/10 08:49:27;;;;;;;3.03;2.10;;;20.90;53.70;;;;;;5072039;28;20439;-50
2023/10/10 08:52:00;;;;;;;2.30;1.60;;;21.00;54.00;;;;;;5071895;28;20493;-49
2023/10/10 08:54:26;;;;;;;3.07;1.70;;;21.00;54.20;;;;;;5071680;28;20446;-50
2023/10/10 08:57:04;;;;;;;1.30;1.00;;;21.00;53.10;;;;;;5071360;28;20458;-50
2023/10/10 08:59:31;;;;;;;1.17;0.57;;;21.00;53.60;;;;;;5071927;28;20501;-49
2023/10/10 09:02:15;;;;;;;3.83;1.80;;;21.00;53.60;;;;;;5071716;28;20506;-51
2023/10/10 09:04:41;;;;;;;3.23;1.20;;;21.10;53.60;;;;;;5071693;28;20928;-49
2023/10/10 09:07:30;;;;;;;2.00;1.37;;;21.00;52.20;;;;;;5071197;28;20991;-49
2023/10/10 09:10:06;;;;;;;1.80;1.03;;;21.00;52.70;;;;;;5071148;28;20506;-49
2023/10/10 09:12:52;;;;;;;1.20;0.80;;;21.00;52.80;;;;;;5071602;28;20403;-53
2023/10/10 09:15:19;;;;;;;1.30;0.80;;;21.00;53.30;;;;;;5071588;28;20430;-49
2023/10/10 09:17:46;;;;;;;2.20;1.13;;;21.00;53.10;;;;;;5071210;28;20442;-51
2023/10/10 09:20:22;;;;;;;1.60;1.10;;;21.00;52.10;;;;;;5071453;28;20410;-50
2023/10/10 09:22:52;;;;;;;2.13;1.33;;;21.10;51.50;;;;;;5071654;28;20180;-49
2023/10/10 09:25:48;;;;;;;1.53;0.73;;;21.10;52.40;;;;;;5071398;28;20173;-50
2023/10/10 09:28:16;;;;;;;5.10;1.43;;;21.10;51.70;;;;;;5072313;28;20442;-49
2023/10/10 09:30:49;;;;;;;3.67;1.47;;;21.10;51.40;;;;;;5075558;28;20871;-51
2023/10/10 09:35:53;;;;;;;4.13;1.63;;;21.40;52.50;;;;;;5074927;28;20418;-48
2023/10/10 09:38:26;;;;;;;2.37;1.20;;;21.40;52.30;;;;;;5075187;28;20403;-51
2023/10/10 10:05:58;;;;;;;2.17;1.37;;;21.70;50.60;;;;;;5074205;28;20537;-49
2023/10/10 10:08:37;;;;;;;2.07;1.53;;;21.70;50.70;;;;;;5074810;28;20407;-48
2023/10/10 10:11:13;;;;;;;2.43;1.30;;;21.70;49.00;;;;;;5074535;28;20456;-51
2023/10/10 10:14:23;;;;;;;1.83;1.00;;;21.70;49.90;;;;;;5074566;28;20426;-49
2023/10/10 10:17:12;;;;;;;2.00;1.27;;;21.80;50.10;;;;;;5019359;28;20437;-51
2023/10/10 10:19:45;;;;;;;3.03;1.93;;;21.80;50.50;;;;;;5074385;28;20916;-49
2023/10/10 10:22:17;;;;;;;1.90;1.17;;;21.80;49.80;;;;;;5074299;28;20411;-49
2023/10/10 10:24:45;;;;;;;2.27;1.47;;;21.90;50.20;;;;;;5106914;28;20415;-52
2023/10/10 10:27:31;;;;;;;1.70;0.97;;;21.90;50.50;;;;;;5073822;28;20865;-48
2023/10/10 10:30:38;;;;;;;3.53;1.20;;;22.00;50.60;;;;;;5074126;28;20406;-49
2023/10/10 10:32:58;;;;;;;4.33;2.03;;;22.00;49.40;;;;;;5074855;28;20411;-51
2023/10/10 10:35:58;;;;;;;2.23;1.30;;;22.10;50.20;;;;;;5074169;28;20431;-49
2023/10/10 10:38:23;;;;;;;2.90;1.57;;;22.10;49.90;;;;;;5073996;28;20406;-52
2023/10/10 10:40:51;;;;;;;3.40;1.97;;;22.20;49.10;;;;;;5073675;28;20391;-49
2023/10/10 10:43:31;;;;;;;4.03;1.57;;;22.30;50.10;;;;;;5073933;28;20169;-51
2023/10/10 10:46:14;;;;;;;5.97;2.60;;;22.30;48.50;;;;;;5073735;28;20826;-49
2023/10/10 10:48:47;;;;;;;8.13;2.27;;;22.40;49.00;;;;;;5073976;28;20553;-53
2023/10/10 10:51:26;;;;;;;5.47;2.03;;;22.40;48.90;;;;;;5073795;28;20409;-52
2023/10/10 10:53:59;;;;;;;10.93;2.90;;;22.40;49.30;;;;;;5073628;28;20816;-49
2023/10/10 10:59:13;;;;;;;6.10;1.67;;;22.40;48.80;;;;;;5073661;28;20418;-49
2023/10/10 11:01:45;;;;;;;10.47;2.03;;;22.40;48.60;;;;;;5073632;28;20407;-52
2023/10/10 11:04:23;;;;;;;5.13;2.10;;;22.40;49.20;;;;;;5073476;28;20456;-49
2023/10/10 11:06:59;;;;;;;6.80;2.50;;;22.50;49.20;;;;;;5073283;28;20469;-51
2023/10/10 11:09:28;;;;;;;7.67;2.00;;;22.60;49.00;;;;;;5073606;28;20414;-51
2023/10/10 11:12:06;;;;;;;9.40;2.70;;;22.70;49.20;;;;;;5073321;28;20399;-49
2023/10/10 11:14:34;;;;;;;12.20;2.37;;;22.70;48.30;;;;;;5073264;28;20902;-48
2023/10/10 11:17:00;;;;;;;10.40;1.67;;;22.70;48.40;;;;;;5073131;28;20437;-52
2023/10/10 11:22:01;;;;;;;9.53;2.30;;;22.80;48.00;;;;;;5073217;28;20411;-48
2023/10/10 11:24:31;;;;;;;12.40;2.77;;;22.70;47.30;;;;;;5073364;28;20411;-53
2023/10/10 11:27:17;;;;;;;10.33;2.60;;;22.70;48.20;;;;;;5072746;28;20443;-49
2023/10/10 11:32:45;;;;;;;6.30;2.47;;;22.80;48.40;;;;;;5073259;28;20979;-49
2023/10/10 11:35:22;;;;;;;13.47;3.23;;;;;;;;;;5072988;28;20406;-49
2023/10/10 11:37:58;;;;;;;10.50;2.53;;;23.00;47.40;;;;;;5072697;28;20391;-49
2023/10/10 11:43:06;;;;;;;13.03;3.90;;;;;;;;;;5072918;28;20410;-52
2023/10/10 11:45:39;;;;;;;16.57;4.47;;;23.10;47.30;;;;;;5072428;28;20402;-52
2023/10/10 11:48:12;;;;;;;14.60;2.40;;;;;;;;;;5072594;28;20411;-52
2023/10/10 11:50:48;;;;;;;17.93;3.10;;;;;;;;;;5072111;28;20399;-51
2023/10/10 11:53:27;;;;;;;14.10;3.00;;;23.60;46.20;;;;;;5072644;28;20399;-48
2023/10/10 11:55:54;;;;;;;17.00;2.33;;;;;;;;;;5072219;28;20442;-51
2023/10/10 11:58:35;;;;;;;13.70;2.60;;;23.90;45.60;;;;;;5072355;28;20406;-49
2023/10/10 12:01:09;;;;;;;20.43;2.40;;;24.00;44.80;;;;;;5072691;28;20414;-49
2023/10/10 12:06:14;;;;;;;17.37;2.93;;;;;;;;;;5072061;28;20496;-49
2023/10/10 12:08:44;;;;;;;17.20;2.33;;;;;;;;;;5072277;28;20401;-52
2023/10/10 12:11:32;;;;;;;12.57;2.37;;;;;;;;;;5072326;28;20925;-49
2023/10/10 12:13:59;;;;;;;10.33;2.00;;;;;;;;;;5072323;28;20399;-49
2023/10/10 12:16:25;;;;;;;13.80;2.10;;;24.10;45.10;;;;;;5071964;28;20585;-53
2023/10/10 12:18:52;;;;;;;19.17;3.47;;;;;;;;;;5072121;28;20930;-52
2023/10/10 12:21:20;;;;;;;16.10;2.60;;;;;;;;;;5072024;28;20505;-48
2023/10/10 12:24:03;;;;;;;15.60;2.77;;;24.10;44.40;;;;;;5072273;28;20413;-51
2023/10/10 12:26:30;;;;;;;14.80;2.20;;;;;;;;;;5071813;28;20446;-50
2023/10/10 12:28:55;;;;;;;21.40;3.73;;;24.40;41.50;;;;;;5071985;28;20407;-49
2023/10/10 12:31:22;;;;;;;14.90;1.87;;;24.40;43.40;;;;;;5071980;28;20751;-49
2023/10/10 12:33:48;;;;;;;19.83;2.60;;;24.40;40.10;;;;;;5071979;28;20165;-52
2023/10/10 12:36:22;;;;;;;16.87;2.90;;;24.40;40.00;;;;;;5071710;28;20922;-51
2023/10/10 12:38:48;;;;;;;30.80;4.20;;;24.30;41.20;;;;;;5072012;28;20429;-48
2023/10/10 12:41:20;;;;;;;18.33;2.70;;;24.30;42.30;;;;;;5072068;28;20415;-51
2023/10/10 12:43:50;;;;;;;22.70;2.90;;;24.30;41.80;;;;;;5071856;28;20813;-52
2023/10/10 12:46:22;;;;;;;19.50;2.60;;;24.30;42.20;;;;;;5071435;28;20525;-49
2023/10/10 12:48:51;;;;;;;17.90;2.67;;;24.30;43.20;;;;;;5071921;28;20400;-51
2023/10/10 12:51:19;;;;;;;16.87;2.40;;;24.50;43.10;;;;;;5071780;28;20410;-49
2023/10/10 12:53:45;;;;;;;17.93;2.90;;;24.60;43.40;;;;;;5071878;28;20407;-49
2023/10/10 12:56:16;;;;;;;17.77;3.27;;;;;;;;;;5071376;28;20476;-51
2023/10/10 12:58:43;;;;;;;19.57;2.67;;;;;;;;;;5071690;28;20184;-52
2023/10/10 13:01:14;;;;;;;17.70;3.07;;;;;;;;;;5072014;28;20407;-49
2023/10/10 13:03:42;;;;;;;15.43;2.33;;;24.60;42.90;;;;;;5075132;28;20924;-52
2023/10/10 13:06:09;;;;;;;15.60;2.57;;;24.50;43.00;;;;;;5075389;28;20474;-50
2023/10/10 13:11:20;;;;;;;19.50;3.13;;;24.30;42.20;;;;;;5075611;28;20395;-50
2023/10/10 13:13:56;;;;;;;10.20;2.37;;;24.20;42.50;;;;;;5075596;28;20964;-51
2023/10/10 13:16:24;;;;;;;13.13;1.97;;;24.10;43.20;;;;;;5075457;28;20430;-52
2023/10/10 13:18:51;;;;;;;14.03;2.97;;;24.00;43.70;;;;;;5075499;28;20959;-49
2023/10/10 13:21:19;;;;;;;16.33;2.33;;;24.00;44.10;;;;;;5075551;28;20743;-53
2023/10/10 13:23:46;;;;;;;15.17;2.30;;;;;;;;;;5075407;28;20647;-48
2023/10/10 13:26:12;;;;;;;13.37;2.27;;;;;;;;;;5074976;28;20490;-51
2023/10/10 13:28:44;;;;;;;33.40;4.10;;;;;;;;;;5075308;28;20391;-49
2023/10/10 13:31:10;;;;;;;15.23;2.33;;;;;;;;;;5075496;28;20403;-49
2023/10/10 13:33:39;;;;;;;15.63;2.90;;;;;;;;;;5075271;28;20480;-50
2023/10/10 13:36:17;;;;;;;15.63;2.60;;;23.80;45.90;;;;;;5090520;28;20509;-52
2023/10/10 13:38:48;;;;;;;16.63;2.90;;;;;;;;;;5075340;28;20433;-49
2023/10/10 13:41:19;;;;;;;17.10;3.03;;;23.90;46.20;;;;;;5075313;28;20467;-50
2023/10/10 13:43:48;;;;;;;14.20;2.57;;;;;;;;;;5075165;28;20414;-52
2023/10/10 13:46:16;;;;;;;13.77;3.17;;;23.90;46.40;;;;;;5074625;28;20442;-50
2023/10/10 13:48:42;;;;;;;19.43;3.17;;;;;;;;;;5074926;28;20939;-50
2023/10/10 13:51:09;;;;;;;12.80;2.97;;;;;;;;;;5075101;28;20460;-51
2023/10/10 13:53:35;;;;;;;14.50;2.93;;;23.90;46.20;;;;;;5075019;28;20399;-48
2023/10/10 13:56:04;;;;;;;15.20;2.43;;;23.90;46.20;;;;;;5074559;28;20492;-49
2023/10/10 13:58:30;;;;;;;14.50;2.40;;;23.90;46.20;;;;;;5074745;28;20419;-50
2023/10/10 14:01:05;;;;;;;17.07;3.73;;;23.90;45.80;;;;;;5074806;28;20406;-49
2023/10/10 14:03:37;;;;;;;18.37;3.77;;;23.90;46.10;;;;;;5074564;28;20417;-49
2023/10/10 14:06:12;;;;;;;21.27;4.27;;;;;;;;;;5074206;28;20459;-51
2023/10/10 14:08:43;;;;;;;17.50;2.77;;;23.80;45.70;;;;;;5074772;28;20475;-48
2023/10/10 14:11:10;;;;;;;19.90;2.97;;;;;;;;;;5074579;28;20425;-49
2023/10/10 14:13:36;;;;;;;13.93;2.70;;;;;;;;;;5073755;28;20403;-51
2023/10/10 14:16:03;;;;;;;27.77;3.87;;;;;;;;;;5073971;28;20423;-53
2023/10/10 14:18:31;;;;;;;14.83;2.60;;;23.80;46.40;;;;;;5074283;28;20399;-51
2023/10/10 14:21:07;;;;;;;17.17;3.27;;;23.90;46.30;;;;;;5074337;28;20411;-51
2023/10/10 14:23:35;;;;;;;13.27;2.33;;;;;;;;;;5074440;28;20437;-51
2023/10/10 14:26:18;;;;;;;16.47;2.97;;;23.90;46.00;;;;;;5073953;28;20449;-49
2023/10/10 14:28:51;;;;;;;15.00;2.23;;;;;;;;;;5074223;28;20439;-51
2023/10/10 14:31:22;;;;;;;20.80;2.50;;;23.90;46.30;;;;;;5074331;28;20398;-49
2023/10/10 14:33:51;;;;;;;15.57;2.50;;;;;;;;;;5074255;28;20462;-49
2023/10/10 14:36:17;;;;;;;13.80;2.40;;;;;;;;;;5073889;28;20450;-52
2023/10/10 14:38:49;;;;;;;17.20;3.23;;;23.90;46.10;;;;;;5073873;28;20483;-50
2023/10/10 14:41:20;;;;;;;19.13;3.67;;;23.90;46.30;;;;;;5074281;28;20415;-49
2023/10/10 14:43:51;;;;;;;17.53;2.53;;;;;;;;;;5074178;28;20403;-51
2023/10/10 14:46:33;;;;;;;14.27;2.53;;;;;;;;;;5073792;28;20825;-49
2023/10/10 14:49:05;;;;;;;16.77;2.93;;;;;;;;;;5073794;28;20981;-52
2023/10/10 14:51:35;;;;;;;18.17;3.93;;;23.70;47.00;;;;;;5073820;28;20391;-48
2023/10/10 14:54:06;;;;;;;17.37;3.90;;;23.80;47.30;;;;;;5074008;28;20454;-52
2023/10/10 14:56:50;;;;;;;17.33;3.00;;;24.60;47.40;;;;;;5073334;28;20529;-48
2023/10/10 14:59:20;;;;;;;14.93;2.93;;;23.80;46.70;;;;;;5073685;28;20399;-51
2023/10/10 15:01:50;;;;;;;32.87;4.63;;;23.80;46.80;;;;;;5073436;28;20410;-49
2023/10/10 15:04:18;;;;;;;11.47;2.10;;;23.80;46.90;;;;;;5073721;28;20407;-52
2023/10/10 15:06:48;;;;;;;20.37;3.87;;;;;;;;;;5073120;28;20984;-49
2023/10/10 15:09:19;;;;;;;14.53;2.93;;;23.80;46.70;;;;;;5073630;28;20494;-53
2023/10/10 15:11:46;;;;;;;16.07;2.53;;;23.80;46.70;;;;;;5073426;28;20409;-51
2023/10/10 15:14:13;;;;;;;19.43;3.17;;;23.80;46.90;;;;;;5073249;28;20407;-50
2023/10/10 15:16:40;;;;;;;18.23;2.90;;;23.70;47.20;;;;;;5072984;28;20441;-50
2023/10/10 15:19:07;;;;;;;17.27;3.37;;;23.70;47.20;;;;;;5073452;28;20403;-53
2023/10/10 15:21:38;;;;;;;18.17;3.50;;;23.70;47.30;;;;;;5073126;28;20804;-52
2023/10/10 15:24:14;;;;;;;15.50;2.80;;;23.70;47.30;;;;;;5073224;28;20430;-50
2023/10/10 15:26:45;;;;;;;18.47;3.63;;;23.60;47.40;;;;;;5071601;28;20989;-52
2023/10/10 15:29:12;;;;;;;11.60;3.10;;;23.60;47.40;;;;;;5073034;28;20404;-50
2023/10/10 15:31:40;;;;;;;20.07;2.50;;;23.50;47.50;;;;;;5072928;28;20819;-51
2023/10/10 15:34:07;;;;;;;15.37;2.80;;;;;;;;;;5072921;28;20936;-51
2023/10/10 15:36:33;;;;;;;15.57;2.87;;;;;;;;;;5072754;28;20840;-49
2023/10/10 15:39:09;;;;;;;16.63;2.83;;;23.40;47.40;;;;;;5072715;28;20910;-49
2023/10/10 15:41:36;;;;;;;26.67;4.77;;;;;;;;;;5073034;28;20420;-51
2023/10/10 15:44:03;;;;;;;15.30;2.67;;;;;;;;;;5072937;28;20404;-49
2023/10/10 15:46:34;;;;;;;16.73;3.40;;;23.30;47.50;;;;;;5072423;28;20447;-50
2023/10/10 15:49:02;;;;;;;17.20;3.80;;;23.30;47.60;;;;;;5072703;28;20419;-52
2023/10/10 15:51:38;;;;;;;16.00;3.10;;;;;;;;;;5072676;28;20411;-50
2023/10/10 15:54:09;;;;;;;19.93;4.20;;;23.20;47.70;;;;;;5072711;28;20411;-49
2023/10/10 15:56:35;;;;;;;18.77;4.40;;;23.20;47.90;;;;;;5072208;28;20901;-53
2023/10/10 15:59:01;;;;;;;16.10;3.80;;;23.10;48.10;;;;;;5072358;28;20515;-49
2023/10/10 16:01:30;;;;;;;21.83;3.80;;;21.70;47.50;;;;;;5072323;28;20494;-51
2023/10/10 16:04:00;;;;;;;17.63;3.70;;;;;;;;;;5072399;28;20186;-51
2023/10/10 16:06:27;;;;;;;16.47;3.67;;;22.90;48.20;;;;;;5072363;28;20458;-48
2023/10/10 16:08:56;;;;;;;12.60;3.03;;;;;;;;;;5072319;28;20407;-51
2023/10/10 16:11:31;;;;;;;16.50;3.77;;;;;;;;;;5072446;28;20410;-50